createdAt,value
2023-01-20T00:01:24.728Z,0.64
2023-01-20T00:03:53.079Z,0.62
2023-01-20T00:06:20.094Z,0.71
2023-01-20T00:08:51.030Z,0.74
2023-01-20T00:11:23.786Z,0.71
2023-01-20T00:13:55.354Z,0.73
2023-01-20T00:16:22.909Z,0.75
2023-01-20T00:18:49.788Z,0.60
2023-01-20T00:21:19.770Z,0.71
2023-01-20T00:23:47.382Z,0.72
2023-01-20T00:26:19.912Z,0.82
2023-01-20T00:28:47.903Z,0.59
2023-01-20T00:31:18.115Z,0.62
2023-01-20T00:33:45.389Z,0.69
2023-01-20T00:36:13.405Z,0.65
2023-01-20T00:38:39.860Z,0.64
2023-01-20T00:41:07.222Z,0.54
2023-01-20T00:43:33.669Z,0.44
2023-01-20T00:46:00.317Z,0.45
2023-01-20T00:48:26.937Z,0.47
2023-01-20T00:50:54.399Z,0.39
2023-01-20T00:53:20.879Z,0.54
2023-01-20T00:55:47.361Z,0.66
2023-01-20T00:58:13.774Z,0.62
2023-01-20T01:00:40.302Z,0.62
2023-01-20T01:03:06.797Z,0.58
2023-01-20T01:05:34.253Z,0.58
2023-01-20T01:08:00.665Z,0.58
2023-01-20T01:10:27.337Z,0.59
2023-01-20T01:12:53.745Z,0.61
2023-01-20T01:15:20.111Z,0.66
2023-01-20T01:17:46.508Z,0.56
2023-01-20T01:20:13.782Z,0.55
2023-01-20T01:22:40.654Z,0.67
2023-01-20T01:25:07.464Z,0.67
2023-01-20T01:27:33.894Z,0.67
2023-01-20T01:30:00.650Z,0.72
2023-01-20T01:32:27.572Z,0.51
2023-01-20T01:34:54.083Z,0.54
2023-01-20T01:37:20.768Z,0.59
2023-01-20T01:39:47.299Z,0.59
2023-01-20T01:42:15.923Z,0.54
2023-01-20T01:45:10.081Z,0.55
2023-01-20T01:47:50.697Z,0.46
2023-01-20T01:50:22.307Z,0.47
2023-01-20T01:52:52.824Z,0.32
2023-01-20T01:55:21.032Z,0.46
2023-01-20T01:57:49.615Z,0.55
2023-01-20T02:00:16.757Z,0.57
2023-01-20T02:02:47.271Z,0.43
2023-01-20T02:05:16.382Z,0.44
2023-01-20T02:07:46.241Z,0.21
2023-01-20T02:10:13.217Z,0.45
2023-01-20T02:12:40.394Z,0.03
2023-01-20T02:15:08.580Z,0.49
2023-01-20T02:17:53.952Z,0.47
2023-01-20T02:20:44.695Z,0.48
2023-01-20T02:23:26.308Z,0.59
2023-01-20T02:26:20.190Z,0.60
2023-01-20T02:29:21.413Z,0.64
2023-01-20T02:32:11.295Z,0.63
2023-01-20T02:34:46.004Z,0.56
2023-01-20T02:37:19.698Z,0.66
2023-01-20T02:39:57.685Z,0.55
2023-01-20T02:42:41.127Z,0.79
2023-01-20T02:45:33.960Z,0.45
2023-01-20T02:48:12.760Z,0.43
2023-01-20T02:51:00.923Z,0.46
2023-01-20T02:53:35.635Z,0.40
2023-01-20T02:56:02.813Z,0.41
2023-01-20T02:58:38.594Z,0.49
2023-01-20T03:01:10.826Z,0.53
2023-01-20T03:03:41.523Z,0.53
2023-01-20T03:06:15.668Z,0.43
2023-01-20T03:08:42.235Z,0.67
2023-01-20T03:11:09.277Z,0.09
2023-01-20T03:13:51.272Z,0.43
2023-01-20T03:16:21.336Z,0.38
2023-01-20T03:18:48.701Z,0.32
2023-01-20T03:21:15.547Z,0.43
2023-01-20T03:23:49.105Z,0.35
2023-01-20T03:26:18.231Z,0.24
2023-01-20T03:28:46.093Z,0.21
2023-01-20T03:31:26.084Z,0.22
2023-01-20T03:33:55.662Z,0.17
2023-01-20T03:36:24.809Z,0.09
2023-01-20T03:38:56.448Z,0.18
2023-01-20T03:41:47.958Z,0.29
2023-01-20T03:44:24.117Z,0.10
2023-01-20T03:47:08.728Z,0.19
2023-01-20T03:49:51.804Z,0.08
2023-01-20T03:52:48.483Z,0.21
2023-01-20T03:55:41.840Z,0.14
2023-01-20T03:58:11.969Z,-0.04
2023-01-20T04:00:44.004Z,0.11
2023-01-20T04:03:18.817Z,0.23
2023-01-20T04:05:47.854Z,0.13
2023-01-20T04:08:17.306Z,0.08
2023-01-20T04:10:47.478Z,0.05
2023-01-20T04:13:15.131Z,0.07
2023-01-20T04:15:46.485Z,0.07
2023-01-20T04:18:15.159Z,-0.08
2023-01-20T04:20:43.458Z,0.04
2023-01-20T04:23:19.726Z,0.00
2023-01-20T04:25:46.149Z,-0.09
2023-01-20T04:28:12.528Z,-0.12
2023-01-20T04:30:39.092Z,-0.06
2023-01-20T04:33:08.916Z,-0.03
2023-01-20T04:35:35.375Z,-0.05
2023-01-20T04:38:02.290Z,-0.09
2023-01-20T04:40:28.748Z,-0.17
2023-01-20T04:42:55.156Z,-0.39
2023-01-20T04:45:21.535Z,-0.34
2023-01-20T04:47:47.949Z,-0.29
2023-01-20T04:50:15.325Z,-0.33
2023-01-20T04:52:42.163Z,-0.39
2023-01-20T04:55:09.189Z,-0.37
2023-01-20T04:57:37.192Z,-0.28
2023-01-20T05:00:05.669Z,-0.38
2023-01-20T05:02:32.185Z,-0.34
2023-01-20T05:04:58.607Z,-0.37
2023-01-20T05:07:25.061Z,-0.41
2023-01-20T05:09:51.464Z,-0.47
2023-01-20T05:12:18.012Z,-0.55
2023-01-20T05:14:44.428Z,-0.37
2023-01-20T05:17:10.912Z,-0.39
2023-01-20T05:19:37.348Z,-0.46
2023-01-20T05:22:03.819Z,-0.47
2023-01-20T05:24:30.842Z,-0.41
2023-01-20T05:27:00.473Z,-0.29
2023-01-20T05:29:27.903Z,-0.61
2023-01-20T05:31:54.331Z,-0.49
2023-01-20T05:34:20.821Z,-0.38
2023-01-20T05:36:51.964Z,-0.41
2023-01-20T05:39:19.403Z,-0.44
2023-01-20T05:41:46.522Z,-0.32
2023-01-20T05:44:15.409Z,-0.48
2023-01-20T05:46:42.216Z,-0.85
2023-01-20T05:49:11.247Z,-0.63
2023-01-20T05:51:37.736Z,-0.48
2023-01-20T05:54:04.392Z,-0.57
2023-01-20T05:56:30.800Z,-0.71
2023-01-20T05:58:57.262Z,-0.91
2023-01-20T06:01:23.979Z,-0.81
2023-01-20T06:03:50.624Z,-0.80
2023-01-20T06:06:18.573Z,-0.98
2023-01-20T06:08:45.655Z,-0.93
2023-01-20T06:11:13.698Z,-0.97
2023-01-20T06:13:40.137Z,-1.13
2023-01-20T06:16:07.656Z,-1.03
2023-01-20T06:18:34.617Z,-1.44
2023-01-20T06:21:01.204Z,-1.36
2023-01-20T06:23:27.911Z,-1.34
2023-01-20T06:26:06.299Z,-1.37
2023-01-20T06:28:34.014Z,-1.43
2023-01-20T06:31:12.081Z,-1.43
2023-01-20T06:33:38.933Z,-1.53
2023-01-20T06:36:06.727Z,-1.59
2023-01-20T06:38:34.832Z,-1.54
2023-01-20T06:41:03.992Z,-1.60
2023-01-20T06:43:32.574Z,-1.52
2023-01-20T06:46:01.306Z,-1.47
2023-01-20T06:48:29.178Z,-1.39
2023-01-20T06:51:07.546Z,-1.40
2023-01-20T06:53:34.243Z,-1.50
2023-01-20T06:56:01.427Z,-1.20
2023-01-20T06:58:30.654Z,-1.13
2023-01-20T07:00:58.606Z,-1.30
2023-01-20T07:03:25.291Z,-1.15
2023-01-20T07:05:59.321Z,-1.06
2023-01-20T07:08:26.136Z,-1.53
2023-01-20T07:10:52.503Z,-1.49
2023-01-20T07:13:18.951Z,-1.39
2023-01-20T07:15:45.718Z,-1.26
2023-01-20T07:18:12.116Z,-1.33
2023-01-20T07:20:43.234Z,-1.32
2023-01-20T07:23:09.712Z,-1.20
2023-01-20T07:25:38.110Z,-1.16
2023-01-20T07:28:04.950Z,-1.31
2023-01-20T07:30:35.643Z,-1.20
2023-01-20T07:33:02.096Z,-1.38
2023-01-20T07:35:29.319Z,-1.50
2023-01-20T07:37:55.713Z,-1.80
2023-01-20T07:40:22.156Z,-1.47
2023-01-20T07:42:48.546Z,-1.39
2023-01-20T07:45:16.279Z,-1.30
2023-01-20T07:47:42.914Z,-1.12
2023-01-20T07:50:09.896Z,-1.32
2023-01-20T07:52:36.288Z,-1.42
2023-01-20T07:55:03.169Z,-1.45
2023-01-20T07:57:30.307Z,-1.48
2023-01-20T07:59:56.895Z,-1.47
2023-01-20T08:02:23.408Z,-1.44
2023-01-20T08:04:49.942Z,-1.25
2023-01-20T08:07:16.331Z,-1.30
2023-01-20T08:09:43.958Z,-1.29
2023-01-20T08:12:10.439Z,-0.91
2023-01-20T08:14:37.934Z,-1.04
2023-01-20T08:17:04.504Z,-1.08
2023-01-20T08:19:30.917Z,-1.08
2023-01-20T08:21:57.324Z,-0.90
2023-01-20T08:24:23.760Z,-0.60
2023-01-20T08:26:51.169Z,-0.27
2023-01-20T08:29:17.769Z,-0.18
2023-01-20T08:31:44.372Z,-0.28
2023-01-20T08:34:12.170Z,-0.25
2023-01-20T08:36:45.475Z,-0.31
2023-01-20T08:39:14.977Z,-0.21
2023-01-20T08:41:43.756Z,-0.27
2023-01-20T08:44:10.951Z,-0.47
2023-01-20T08:46:41.544Z,-0.42
2023-01-20T08:49:16.267Z,-0.11
2023-01-20T08:51:44.729Z,-0.02
2023-01-20T08:54:11.771Z,-0.11
2023-01-20T08:56:38.282Z,-0.14
2023-01-20T08:59:04.992Z,0.08
2023-01-20T09:01:35.957Z,0.31
2023-01-20T09:04:06.216Z,0.48
2023-01-20T09:06:40.258Z,0.44
2023-01-20T09:09:06.661Z,0.24
2023-01-20T09:11:33.566Z,0.24
2023-01-20T09:14:00.300Z,0.10
2023-01-20T09:16:27.020Z,0.19
2023-01-20T09:18:53.548Z,0.37
2023-01-20T09:21:20.138Z,0.24
2023-01-20T09:23:48.215Z,0.42
2023-01-20T09:26:26.132Z,0.31
2023-01-20T09:29:08.864Z,0.90
2023-01-20T09:31:46.833Z,1.08
2023-01-20T09:34:19.685Z,1.14
2023-01-20T09:36:50.037Z,1.12
2023-01-20T09:39:35.922Z,1.02
2023-01-20T09:42:37.791Z,1.04
2023-01-20T09:45:25.645Z,1.20
2023-01-20T09:47:58.775Z,1.24
2023-01-20T09:51:02.447Z,1.48
2023-01-20T09:53:42.424Z,1.26
2023-01-20T09:56:27.961Z,0.96
2023-01-20T09:59:09.107Z,1.45
2023-01-20T10:01:58.055Z,1.54
2023-01-20T10:04:32.973Z,1.66
2023-01-20T10:07:11.248Z,1.90
2023-01-20T10:09:49.544Z,2.04
2023-01-20T10:12:27.211Z,1.93
2023-01-20T10:15:20.578Z,1.92
2023-01-20T10:17:53.176Z,1.92
2023-01-20T10:20:41.379Z,1.77
2023-01-20T10:23:10.313Z,1.90
2023-01-20T10:25:53.724Z,1.77
2023-01-20T10:28:33.981Z,1.68
2023-01-20T10:31:04.509Z,1.62
2023-01-20T10:33:37.241Z,1.74
2023-01-20T10:36:04.422Z,1.81
2023-01-20T10:38:43.093Z,1.88
2023-01-20T10:41:19.824Z,2.08
2023-01-20T10:43:47.915Z,1.92
2023-01-20T10:46:44.059Z,1.88
2023-01-20T10:49:34.902Z,2.61
2023-01-20T10:52:29.310Z,2.81
2023-01-20T10:55:15.704Z,3.05
2023-01-20T10:57:42.431Z,4.18
2023-01-20T11:00:23.660Z,3.42
2023-01-20T11:02:52.499Z,2.85
2023-01-20T11:05:25.978Z,3.12
2023-01-20T11:08:13.136Z,3.06
2023-01-20T11:10:40.108Z,3.17
2023-01-20T11:13:10.702Z,3.49
2023-01-20T11:15:41.705Z,3.08
2023-01-20T11:18:14.223Z,3.23
2023-01-20T11:20:49.501Z,4.04
2023-01-20T11:23:23.929Z,4.27
2023-01-20T11:25:57.759Z,4.08
2023-01-20T11:28:25.131Z,4.12
2023-01-20T11:30:56.389Z,3.54
2023-01-20T11:33:26.423Z,3.81
2023-01-20T11:36:05.032Z,4.17
2023-01-20T11:38:46.308Z,4.78
2023-01-20T11:41:14.066Z,4.89
2023-01-20T11:43:40.945Z,3.55
2023-01-20T11:46:11.452Z,3.07
2023-01-20T11:48:38.540Z,3.62
2023-01-20T11:51:05.331Z,3.44
2023-01-20T11:53:33.240Z,3.20
2023-01-20T11:56:12.363Z,3.54
2023-01-20T11:59:02.062Z,3.37
2023-01-20T12:01:31.486Z,3.29
2023-01-20T12:04:01.064Z,3.22
2023-01-20T12:06:33.486Z,2.98
2023-01-20T12:09:04.885Z,3.04
2023-01-20T12:11:35.623Z,3.30
2023-01-20T12:14:21.195Z,3.28
2023-01-20T12:17:02.782Z,3.55
2023-01-20T12:20:06.290Z,3.49
2023-01-20T12:22:48.040Z,4.17
2023-01-20T12:25:25.020Z,4.68
2023-01-20T12:27:56.609Z,4.88
2023-01-20T12:30:36.586Z,5.60
2023-01-20T12:33:03.290Z,5.30
2023-01-20T12:35:37.617Z,5.34
2023-01-20T12:38:08.390Z,5.55
2023-01-20T12:40:48.829Z,5.54
2023-01-20T12:43:32.609Z,5.03
2023-01-20T12:46:17.353Z,5.60
2023-01-20T12:49:13.807Z,5.92
2023-01-20T12:51:42.050Z,5.63
2023-01-20T12:54:47.734Z,5.51
2023-01-20T12:57:59.942Z,6.23
2023-01-20T13:00:32.228Z,6.39
2023-01-20T13:03:24.372Z,5.95
2023-01-20T13:06:19.258Z,6.55
2023-01-20T13:09:08.836Z,6.88
2023-01-20T13:12:13.024Z,6.82
2023-01-20T13:14:47.484Z,6.45
2023-01-20T13:17:32.831Z,6.31
2023-01-20T13:20:02.849Z,6.50
2023-01-20T13:22:30.748Z,6.92
2023-01-20T13:24:59.763Z,7.12
2023-01-20T13:27:32.516Z,6.30
2023-01-20T13:30:03.094Z,5.91
2023-01-20T13:32:43.182Z,6.74
2023-01-20T13:35:15.754Z,6.58
2023-01-20T13:37:53.183Z,6.68
2023-01-20T13:40:37.754Z,6.14
2023-01-20T13:43:25.567Z,7.18
2023-01-20T13:46:07.426Z,6.40
2023-01-20T13:48:36.198Z,6.70
2023-01-20T13:51:21.565Z,6.25
2023-01-20T13:53:48.021Z,5.83
2023-01-20T13:56:28.179Z,6.17
2023-01-20T13:58:55.907Z,5.78
2023-01-20T14:01:22.373Z,5.79
2023-01-20T14:04:06.843Z,5.46
2023-01-20T14:06:35.763Z,4.99
2023-01-20T14:09:03.601Z,4.66
2023-01-20T14:11:31.324Z,3.91
2023-01-20T14:14:05.856Z,3.78
2023-01-20T14:16:35.188Z,4.01
2023-01-20T14:19:15.209Z,3.60
2023-01-20T14:21:42.645Z,3.84
2023-01-20T14:24:29.319Z,3.96
2023-01-20T14:27:21.774Z,3.46
2023-01-20T14:29:53.432Z,3.18
2023-01-20T14:32:23.780Z,2.93
2023-01-20T14:34:51.521Z,2.85
2023-01-20T14:37:27.649Z,2.55
2023-01-20T14:39:56.867Z,2.80
2023-01-20T14:42:23.661Z,2.47
2023-01-20T14:44:52.189Z,2.46
2023-01-20T14:47:21.016Z,2.11
2023-01-20T14:49:58.972Z,1.74
2023-01-20T14:52:30.736Z,1.85
2023-01-20T14:54:57.740Z,1.87
2023-01-20T14:57:40.649Z,2.07
2023-01-20T15:00:20.541Z,2.06
2023-01-20T15:03:09.265Z,2.12
2023-01-20T15:05:40.513Z,1.81
2023-01-20T15:08:18.614Z,1.68
2023-01-20T15:10:45.869Z,1.71
2023-01-20T15:13:28.066Z,1.75
2023-01-20T15:16:12.878Z,1.61
2023-01-20T15:18:39.791Z,1.51
2023-01-20T15:21:28.104Z,1.41
2023-01-20T15:23:54.548Z,1.62
2023-01-20T15:26:29.523Z,1.49
2023-01-20T15:28:57.425Z,1.16
2023-01-20T15:31:25.006Z,1.15
2023-01-20T15:33:51.517Z,1.04
2023-01-20T15:36:24.001Z,0.88
2023-01-20T15:38:51.058Z,0.87
2023-01-20T15:41:18.583Z,0.83
2023-01-20T15:43:45.589Z,0.79
2023-01-20T15:46:14.185Z,1.03
2023-01-20T15:48:41.325Z,1.00
2023-01-20T15:51:13.385Z,0.92
2023-01-20T15:53:39.936Z,0.89
2023-01-20T15:56:10.115Z,0.55
2023-01-20T15:58:37.218Z,0.64
2023-01-20T16:01:03.631Z,0.29
2023-01-20T16:03:33.190Z,0.06
2023-01-20T16:05:59.652Z,0.02
2023-01-20T16:08:35.664Z,-0.07
2023-01-20T16:11:02.178Z,-0.18
2023-01-20T16:13:28.717Z,-0.25
2023-01-20T16:15:55.466Z,-0.19
2023-01-20T16:18:22.468Z,-0.11
2023-01-20T16:20:52.417Z,-0.19
2023-01-20T16:23:19.373Z,-0.06
2023-01-20T16:25:45.811Z,-0.05
2023-01-20T16:28:14.596Z,-0.10
2023-01-20T16:30:42.216Z,-0.16
2023-01-20T16:33:20.657Z,-0.21
2023-01-20T16:35:48.116Z,-0.27
2023-01-20T16:38:15.935Z,-0.11
2023-01-20T16:40:46.963Z,-0.26
2023-01-20T16:43:13.853Z,-0.32
2023-01-20T16:45:40.361Z,-0.29
2023-01-20T16:48:09.182Z,-0.35
2023-01-20T16:50:37.088Z,-0.32
2023-01-20T16:53:04.042Z,-0.19
2023-01-20T16:55:32.840Z,-0.19
2023-01-20T16:57:59.423Z,-0.15
2023-01-20T17:00:25.960Z,-0.17
2023-01-20T17:02:53.325Z,-0.20
2023-01-20T17:05:22.690Z,-0.11
2023-01-20T17:07:50.193Z,-0.17
2023-01-20T17:10:17.915Z,-0.02
2023-01-20T17:12:46.716Z,0.11
2023-01-20T17:15:14.571Z,-0.01
2023-01-20T17:17:41.670Z,0.08
2023-01-20T17:20:12.493Z,0.20
2023-01-20T17:22:40.105Z,0.24
2023-01-20T17:25:08.469Z,0.30
2023-01-20T17:27:35.906Z,0.32
2023-01-20T17:30:03.182Z,0.25
2023-01-20T17:32:29.611Z,0.18
2023-01-20T17:34:56.061Z,0.20
2023-01-20T17:37:22.513Z,0.24
2023-01-20T17:39:48.947Z,0.17
2023-01-20T17:42:17.576Z,0.39
2023-01-20T17:44:44.203Z,0.27
2023-01-20T17:47:11.596Z,0.20
2023-01-20T17:49:42.963Z,0.11
2023-01-20T17:52:09.540Z,0.09
2023-01-20T17:54:36.039Z,0.15
2023-01-20T17:57:02.658Z,0.02
2023-01-20T17:59:29.181Z,0.02
2023-01-20T18:01:56.773Z,0.05
2023-01-20T18:04:23.208Z,0.12
2023-01-20T18:06:49.646Z,0.22
2023-01-20T18:09:16.114Z,0.30
2023-01-20T18:11:43.659Z,0.23
2023-01-20T18:14:10.984Z,0.19
2023-01-20T18:16:43.263Z,0.08
2023-01-20T18:19:12.436Z,0.26
2023-01-20T18:21:39.534Z,0.10
2023-01-20T18:24:07.571Z,0.07
2023-01-20T18:26:36.121Z,0.32
2023-01-20T18:29:07.728Z,0.28
2023-01-20T18:31:35.117Z,0.25
2023-01-20T18:34:05.060Z,0.27
2023-01-20T18:36:34.387Z,0.23
2023-01-20T18:39:11.686Z,0.34
2023-01-20T18:41:38.340Z,0.29
2023-01-20T18:44:05.795Z,0.23
2023-01-20T18:46:32.949Z,0.18
2023-01-20T18:48:59.535Z,0.10
2023-01-20T18:51:28.402Z,0.09
2023-01-20T18:53:59.689Z,0.09
2023-01-20T18:56:28.354Z,-0.05
2023-01-20T18:58:59.060Z,-0.04
2023-01-20T19:01:29.316Z,0.07
2023-01-20T19:03:56.841Z,0.07
2023-01-20T19:06:30.872Z,-0.02
2023-01-20T19:08:58.757Z,0.10
2023-01-20T19:11:31.762Z,0.05
2023-01-20T19:13:59.395Z,0.31
2023-01-20T19:16:32.522Z,0.21
2023-01-20T19:19:03.763Z,0.10
2023-01-20T19:21:32.530Z,0.08
2023-01-20T19:24:01.494Z,0.19
2023-01-20T19:26:28.433Z,0.16
2023-01-20T19:29:03.420Z,0.01
2023-01-20T19:31:31.932Z,0.10
2023-01-20T19:33:58.490Z,-0.04
2023-01-20T19:36:25.167Z,-0.09
2023-01-20T19:38:51.844Z,-0.21
2023-01-20T19:41:21.056Z,-0.14
2023-01-20T19:43:47.797Z,-0.14
2023-01-20T19:46:16.235Z,-0.19
2023-01-20T19:48:43.054Z,-0.16
2023-01-20T19:51:13.142Z,-0.19
2023-01-20T19:53:40.490Z,-0.12
2023-01-20T19:56:09.314Z,0.08
2023-01-20T19:58:39.805Z,-0.21
2023-01-20T20:01:12.899Z,-0.35
2023-01-20T20:03:39.677Z,-0.33
2023-01-20T20:06:07.713Z,-0.37
2023-01-20T20:08:36.305Z,-0.40
2023-01-20T20:11:11.092Z,-0.47
2023-01-20T20:13:37.547Z,-0.36
2023-01-20T20:16:05.777Z,-0.40
2023-01-20T20:18:32.640Z,-0.43
2023-01-20T20:20:59.808Z,-0.38
2023-01-20T20:23:26.428Z,-0.44
2023-01-20T20:25:57.500Z,-0.47
2023-01-20T20:28:28.154Z,-0.66
2023-01-20T20:30:55.554Z,-0.63
2023-01-20T20:33:25.413Z,-0.75
2023-01-20T20:35:52.089Z,-0.75
2023-01-20T20:38:18.771Z,-0.73
2023-01-20T20:40:46.144Z,-0.66
2023-01-20T20:43:12.714Z,-0.72
2023-01-20T20:45:39.353Z,-0.69
2023-01-20T20:48:06.102Z,-0.97
2023-01-20T20:50:34.525Z,-0.90
2023-01-20T20:53:01.121Z,-0.93
2023-01-20T20:55:29.243Z,-0.94
2023-01-20T20:57:56.534Z,-0.89
2023-01-20T21:00:25.084Z,-0.83
2023-01-20T21:02:51.565Z,-0.78
2023-01-20T21:05:20.527Z,-0.95
2023-01-20T21:07:46.949Z,-0.85
2023-01-20T21:10:15.824Z,-0.83
2023-01-20T21:12:43.893Z,-0.92
2023-01-20T21:15:11.421Z,-0.87
2023-01-20T21:17:40.574Z,-0.89
2023-01-20T21:20:10.759Z,-0.97
2023-01-20T21:22:38.218Z,-1.11
2023-01-20T21:25:06.195Z,-1.12
2023-01-20T21:27:33.410Z,-1.05
2023-01-20T21:29:59.862Z,-1.13
2023-01-20T21:32:26.464Z,-1.13
2023-01-20T21:34:53.244Z,-1.14
2023-01-20T21:37:20.540Z,-1.05
2023-01-20T21:39:46.964Z,-1.34
2023-01-20T21:42:13.427Z,-1.14
2023-01-20T21:44:42.588Z,-1.25
2023-01-20T21:47:09.169Z,-1.31
2023-01-20T21:49:54.000Z,-1.31
2023-01-20T21:52:41.079Z,-1.46
2023-01-20T21:55:22.675Z,-1.57
2023-01-20T21:57:51.341Z,-1.55
2023-01-20T22:00:18.639Z,-1.56
2023-01-20T22:02:45.493Z,-1.66
2023-01-20T22:05:13.588Z,-1.72
2023-01-20T22:07:40.090Z,-1.82
2023-01-20T22:10:07.812Z,-1.77
2023-01-20T22:12:35.570Z,-1.73
2023-01-20T22:15:03.691Z,-1.74
2023-01-20T22:17:33.054Z,-1.74
2023-01-20T22:19:59.626Z,-1.66
2023-01-20T22:22:26.056Z,-1.87
2023-01-20T22:24:53.242Z,-2.02
2023-01-20T22:27:19.738Z,-2.05
2023-01-20T22:29:46.420Z,-2.03
2023-01-20T22:32:12.975Z,-2.14
2023-01-20T22:34:39.445Z,-2.07
2023-01-20T22:37:05.870Z,-2.10
2023-01-20T22:39:32.296Z,-2.12
2023-01-20T22:41:58.752Z,-2.11
2023-01-20T22:44:25.369Z,-2.13
2023-01-20T22:46:51.898Z,-1.97
2023-01-20T22:49:18.467Z,-2.04
2023-01-20T22:51:45.093Z,-1.97
2023-01-20T22:54:11.745Z,-1.94
2023-01-20T22:56:39.485Z,-1.79
2023-01-20T22:59:06.525Z,-2.24
2023-01-20T23:01:35.163Z,-2.31
2023-01-20T23:04:04.137Z,-2.19
2023-01-20T23:06:34.553Z,-2.10
2023-01-20T23:09:04.663Z,-2.27
2023-01-20T23:11:32.371Z,-2.14
2023-01-20T23:13:58.951Z,-2.30
2023-01-20T23:16:25.492Z,-2.48
2023-01-20T23:18:53.056Z,-2.38
2023-01-20T23:21:20.727Z,-2.31
2023-01-20T23:23:54.112Z,-2.50
2023-01-20T23:26:26.498Z,-2.29
2023-01-20T23:28:53.973Z,-2.73
2023-01-20T23:31:21.804Z,-2.61
2023-01-20T23:33:48.414Z,-2.74
2023-01-20T23:36:33.128Z,-2.69
2023-01-20T23:38:59.625Z,-2.92
2023-01-20T23:41:26.185Z,-2.87
2023-01-20T23:43:52.709Z,-2.83
2023-01-20T23:46:19.455Z,-2.76
2023-01-20T23:48:46.968Z,-2.70
2023-01-20T23:51:13.913Z,-2.68
2023-01-20T23:53:46.168Z,-2.80
2023-01-20T23:56:16.182Z,-3.01
2023-01-20T23:58:43.087Z,-2.67
